sensor_id;sensor_type;location;lat;lon;timestamp;temperature;humidity
25342;DHT22;13298;48.792;9.154;2023-04-25T00:01:17;7.80;99.90
25342;DHT22;13298;48.792;9.154;2023-04-25T00:03:44;7.80;99.90
25342;DHT22;13298;48.792;9.154;2023-04-25T00:06:10;7.80;99.90
25342;DHT22;13298;48.792;9.154;2023-04-25T00:08:36;7.80;99.90
25342;DHT22;13298;48.792;9.154;2023-04-25T00:11:02;7.70;99.90
25342;DHT22;13298;48.792;9.154;2023-04-25T00:13:27;7.70;99.90
25342;DHT22;13298;48.792;9.154;2023-04-25T00:15:53;7.70;99.90
25342;DHT22;13298;48.792;9.154;2023-04-25T00:18:19;7.70;99.90
25342;DHT22;13298;48.792;9.154;2023-04-25T00:20:46;7.70;99.90
25342;DHT22;13298;48.792;9.154;2023-04-25T00:23:16;7.70;99.90
25342;DHT22;13298;48.792;9.154;2023-04-25T00:25:45;7.70;99.90
25342;DHT22;13298;48.792;9.154;2023-04-25T00:28:12;7.70;99.90
25342;DHT22;13298;48.792;9.154;2023-04-25T00:30:38;7.60;99.90
25342;DHT22;13298;48.792;9.154;2023-04-25T00:33:05;7.60;99.90
25342;DHT22;13298;48.792;9.154;2023-04-25T00:35:31;7.60;99.90
25342;DHT22;13298;48.792;9.154;2023-04-25T00:37:56;7.60;99.90
25342;DHT22;13298;48.792;9.154;2023-04-25T00:40:22;7.60;99.90
25342;DHT22;13298;48.792;9.154;2023-04-25T00:42:49;7.60;99.90
25342;DHT22;13298;48.792;9.154;2023-04-25T00:45:15;7.60;99.90
25342;DHT22;13298;48.792;9.154;2023-04-25T00:47:41;7.60;99.90
25342;DHT22;13298;48.792;9.154;2023-04-25T00:50:08;7.60;99.90
25342;DHT22;13298;48.792;9.154;2023-04-25T00:52:34;7.50;99.90
25342;DHT22;13298;48.792;9.154;2023-04-25T00:55:01;7.50;99.90
25342;DHT22;13298;48.792;9.154;2023-04-25T00:57:26;7.50;99.90
25342;DHT22;13298;48.792;9.154;2023-04-25T00:59:54;7.50;99.90
25342;DHT22;13298;48.792;9.154;2023-04-25T01:02:20;7.50;99.90
25342;DHT22;13298;48.792;9.154;2023-04-25T01:04:47;7.50;99.90
25342;DHT22;13298;48.792;9.154;2023-04-25T01:07:13;7.50;99.90
25342;DHT22;13298;48.792;9.154;2023-04-25T01:09:39;7.50;99.90
25342;DHT22;13298;48.792;9.154;2023-04-25T01:12:05;7.50;99.90
25342;DHT22;13298;48.792;9.154;2023-04-25T01:14:31;7.50;99.90
25342;DHT22;13298;48.792;9.154;2023-04-25T01:16:57;7.50;99.90
25342;DHT22;13298;48.792;9.154;2023-04-25T01:19:24;7.50;99.90
25342;DHT22;13298;48.792;9.154;2023-04-25T01:21:50;7.50;99.90
25342;DHT22;13298;48.792;9.154;2023-04-25T01:24:16;7.60;99.90
25342;DHT22;13298;48.792;9.154;2023-04-25T01:26:42;7.50;99.90
25342;DHT22;13298;48.792;9.154;2023-04-25T01:29:16;7.50;99.90
25342;DHT22;13298;48.792;9.154;2023-04-25T01:31:44;7.40;99.90
25342;DHT22;13298;48.792;9.154;2023-04-25T01:34:10;7.40;99.90
25342;DHT22;13298;48.792;9.154;2023-04-25T01:36:36;7.30;99.90
25342;DHT22;13298;48.792;9.154;2023-04-25T01:39:02;7.30;99.90
25342;DHT22;13298;48.792;9.154;2023-04-25T01:41:28;7.30;99.90
25342;DHT22;13298;48.792;9.154;2023-04-25T01:43:54;7.30;99.90
25342;DHT22;13298;48.792;9.154;2023-04-25T01:46:20;7.30;99.90
25342;DHT22;13298;48.792;9.154;2023-04-25T01:48:46;7.30;99.90
25342;DHT22;13298;48.792;9.154;2023-04-25T01:51:12;7.30;99.90
25342;DHT22;13298;48.792;9.154;2023-04-25T01:53:39;7.40;99.90
25342;DHT22;13298;48.792;9.154;2023-04-25T01:56:05;7.40;99.90
25342;DHT22;13298;48.792;9.154;2023-04-25T01:58:31;7.40;99.90
25342;DHT22;13298;48.792;9.154;2023-04-25T02:00:57;7.40;99.90
25342;DHT22;13298;48.792;9.154;2023-04-25T02:03:22;7.40;99.90
25342;DHT22;13298;48.792;9.154;2023-04-25T02:05:48;7.40;99.90
25342;DHT22;13298;48.792;9.154;2023-04-25T02:08:15;7.40;99.90
25342;DHT22;13298;48.792;9.154;2023-04-25T02:10:41;7.40;99.90
25342;DHT22;13298;48.792;9.154;2023-04-25T02:13:07;7.50;99.90
25342;DHT22;13298;48.792;9.154;2023-04-25T02:15:33;7.50;99.90
25342;DHT22;13298;48.792;9.154;2023-04-25T02:17:58;7.40;99.90
25342;DHT22;13298;48.792;9.154;2023-04-25T02:20:25;7.40;99.90
25342;DHT22;13298;48.792;9.154;2023-04-25T02:22:52;7.30;99.90
25342;DHT22;13298;48.792;9.154;2023-04-25T02:25:19;7.20;99.90
25342;DHT22;13298;48.792;9.154;2023-04-25T02:27:46;7.20;99.90
25342;DHT22;13298;48.792;9.154;2023-04-25T02:30:12;7.10;99.90
25342;DHT22;13298;48.792;9.154;2023-04-25T02:32:39;7.00;99.90
25342;DHT22;13298;48.792;9.154;2023-04-25T02:35:05;6.90;99.90
25342;DHT22;13298;48.792;9.154;2023-04-25T02:37:32;6.90;99.90
25342;DHT22;13298;48.792;9.154;2023-04-25T02:39:59;6.80;99.90
25342;DHT22;13298;48.792;9.154;2023-04-25T02:42:26;6.90;99.90
25342;DHT22;13298;48.792;9.154;2023-04-25T02:44:52;6.90;99.90
25342;DHT22;13298;48.792;9.154;2023-04-25T02:47:18;7.00;99.90
25342;DHT22;13298;48.792;9.154;2023-04-25T02:49:44;7.00;99.90
25342;DHT22;13298;48.792;9.154;2023-04-25T02:52:11;7.10;99.90
25342;DHT22;13298;48.792;9.154;2023-04-25T02:54:38;7.10;99.90
25342;DHT22;13298;48.792;9.154;2023-04-25T02:57:04;7.10;99.90
25342;DHT22;13298;48.792;9.154;2023-04-25T02:59:29;7.10;99.90
25342;DHT22;13298;48.792;9.154;2023-04-25T03:01:55;7.10;99.90
25342;DHT22;13298;48.792;9.154;2023-04-25T03:04:21;7.10;99.90
25342;DHT22;13298;48.792;9.154;2023-04-25T03:06:49;7.10;99.90
25342;DHT22;13298;48.792;9.154;2023-04-25T03:09:15;7.10;99.90
25342;DHT22;13298;48.792;9.154;2023-04-25T03:11:41;7.10;99.90
25342;DHT22;13298;48.792;9.154;2023-04-25T03:14:07;7.10;99.90
25342;DHT22;13298;48.792;9.154;2023-04-25T03:16:33;7.20;99.90
25342;DHT22;13298;48.792;9.154;2023-04-25T03:18:59;7.10;99.90
25342;DHT22;13298;48.792;9.154;2023-04-25T03:21:25;7.10;99.90
25342;DHT22;13298;48.792;9.154;2023-04-25T03:23:51;7.10;99.90
25342;DHT22;13298;48.792;9.154;2023-04-25T03:26:17;7.10;99.90
25342;DHT22;13298;48.792;9.154;2023-04-25T03:28:43;7.00;99.90
25342;DHT22;13298;48.792;9.154;2023-04-25T03:31:08;7.00;99.90
25342;DHT22;13298;48.792;9.154;2023-04-25T03:33:34;7.00;99.90
25342;DHT22;13298;48.792;9.154;2023-04-25T03:36:00;7.00;99.90
25342;DHT22;13298;48.792;9.154;2023-04-25T03:38:26;7.00;99.90
25342;DHT22;13298;48.792;9.154;2023-04-25T03:40:51;6.90;99.90
25342;DHT22;13298;48.792;9.154;2023-04-25T03:43:18;7.00;99.90
25342;DHT22;13298;48.792;9.154;2023-04-25T03:45:43;7.00;99.90
25342;DHT22;13298;48.792;9.154;2023-04-25T03:48:09;7.00;99.90
25342;DHT22;13298;48.792;9.154;2023-04-25T03:50:35;7.10;99.90
25342;DHT22;13298;48.792;9.154;2023-04-25T03:53:01;7.10;99.90
25342;DHT22;13298;48.792;9.154;2023-04-25T03:55:26;7.10;99.90
25342;DHT22;13298;48.792;9.154;2023-04-25T03:57:52;7.10;99.90
25342;DHT22;13298;48.792;9.154;2023-04-25T04:00:18;7.10;99.90
25342;DHT22;13298;48.792;9.154;2023-04-25T04:02:43;7.10;99.90
25342;DHT22;13298;48.792;9.154;2023-04-25T04:05:09;7.00;99.90
25342;DHT22;13298;48.792;9.154;2023-04-25T04:07:35;6.90;99.90
25342;DHT22;13298;48.792;9.154;2023-04-25T04:10:06;6.90;99.90
25342;DHT22;13298;48.792;9.154;2023-04-25T04:12:33;6.80;99.90
25342;DHT22;13298;48.792;9.154;2023-04-25T04:14:58;6.80;99.90
25342;DHT22;13298;48.792;9.154;2023-04-25T04:17:24;6.80;99.90
25342;DHT22;13298;48.792;9.154;2023-04-25T04:19:50;6.80;99.90
25342;DHT22;13298;48.792;9.154;2023-04-25T04:22:16;6.80;99.90
25342;DHT22;13298;48.792;9.154;2023-04-25T04:24:41;6.80;99.90
25342;DHT22;13298;48.792;9.154;2023-04-25T04:27:11;6.80;99.90
25342;DHT22;13298;48.792;9.154;2023-04-25T04:29:38;6.70;99.90
25342;DHT22;13298;48.792;9.154;2023-04-25T04:32:04;6.70;99.90
25342;DHT22;13298;48.792;9.154;2023-04-25T04:34:30;6.70;99.90
25342;DHT22;13298;48.792;9.154;2023-04-25T04:36:56;6.60;99.90
25342;DHT22;13298;48.792;9.154;2023-04-25T04:39:22;6.70;99.90
25342;DHT22;13298;48.792;9.154;2023-04-25T04:41:48;6.80;99.90
25342;DHT22;13298;48.792;9.154;2023-04-25T04:44:14;6.90;99.90
25342;DHT22;13298;48.792;9.154;2023-04-25T04:46:40;7.00;99.90
25342;DHT22;13298;48.792;9.154;2023-04-25T04:49:10;7.10;99.90
25342;DHT22;13298;48.792;9.154;2023-04-25T04:51:38;7.20;99.90
25342;DHT22;13298;48.792;9.154;2023-04-25T04:54:04;7.20;99.90
25342;DHT22;13298;48.792;9.154;2023-04-25T04:56:30;7.30;99.90
25342;DHT22;13298;48.792;9.154;2023-04-25T04:58:59;7.30;99.90
25342;DHT22;13298;48.792;9.154;2023-04-25T05:01:26;7.40;99.90
25342;DHT22;13298;48.792;9.154;2023-04-25T05:03:52;7.40;99.90
25342;DHT22;13298;48.792;9.154;2023-04-25T05:06:21;7.40;99.90
25342;DHT22;13298;48.792;9.154;2023-04-25T05:08:46;7.40;99.90
25342;DHT22;13298;48.792;9.154;2023-04-25T05:11:12;7.40;99.90
25342;DHT22;13298;48.792;9.154;2023-04-25T05:13:38;7.50;99.90
25342;DHT22;13298;48.792;9.154;2023-04-25T05:21:08;7.60;99.90
25342;DHT22;13298;48.792;9.154;2023-04-25T05:23:34;7.70;99.90
25342;DHT22;13298;48.792;9.154;2023-04-25T05:26:00;7.80;99.90
25342;DHT22;13298;48.792;9.154;2023-04-25T05:28:26;7.90;99.90
25342;DHT22;13298;48.792;9.154;2023-04-25T05:30:52;8.00;99.90
25342;DHT22;13298;48.792;9.154;2023-04-25T05:33:18;8.10;99.90
25342;DHT22;13298;48.792;9.154;2023-04-25T05:35:44;8.10;99.90
25342;DHT22;13298;48.792;9.154;2023-04-25T05:38:10;8.10;99.90
25342;DHT22;13298;48.792;9.154;2023-04-25T05:40:36;8.10;99.90
25342;DHT22;13298;48.792;9.154;2023-04-25T05:43:02;8.10;99.90
25342;DHT22;13298;48.792;9.154;2023-04-25T05:45:28;8.10;99.90
25342;DHT22;13298;48.792;9.154;2023-04-25T05:47:53;8.20;99.90
25342;DHT22;13298;48.792;9.154;2023-04-25T05:50:19;8.10;99.90
25342;DHT22;13298;48.792;9.154;2023-04-25T05:52:45;8.20;99.90
25342;DHT22;13298;48.792;9.154;2023-04-25T05:55:11;8.20;99.90
25342;DHT22;13298;48.792;9.154;2023-04-25T05:57:36;8.30;99.90
25342;DHT22;13298;48.792;9.154;2023-04-25T06:00:02;8.30;99.90
25342;DHT22;13298;48.792;9.154;2023-04-25T06:02:29;8.30;99.90
25342;DHT22;13298;48.792;9.154;2023-04-25T06:04:55;8.30;99.90
25342;DHT22;13298;48.792;9.154;2023-04-25T06:07:20;8.30;99.90
25342;DHT22;13298;48.792;9.154;2023-04-25T06:09:46;8.30;99.90
25342;DHT22;13298;48.792;9.154;2023-04-25T06:12:12;8.20;99.90
25342;DHT22;13298;48.792;9.154;2023-04-25T06:14:38;8.20;99.90
25342;DHT22;13298;48.792;9.154;2023-04-25T06:17:04;8.20;99.90
25342;DHT22;13298;48.792;9.154;2023-04-25T06:19:34;8.30;99.90
25342;DHT22;13298;48.792;9.154;2023-04-25T06:22:01;8.30;99.90
25342;DHT22;13298;48.792;9.154;2023-04-25T06:24:27;8.50;99.90
25342;DHT22;13298;48.792;9.154;2023-04-25T06:26:53;8.50;99.90
25342;DHT22;13298;48.792;9.154;2023-04-25T06:29:19;8.60;99.90
25342;DHT22;13298;48.792;9.154;2023-04-25T06:31:45;8.70;99.90
25342;DHT22;13298;48.792;9.154;2023-04-25T06:34:11;8.80;99.90
25342;DHT22;13298;48.792;9.154;2023-04-25T06:36:36;8.90;99.90
25342;DHT22;13298;48.792;9.154;2023-04-25T06:39:02;9.10;99.90
25342;DHT22;13298;48.792;9.154;2023-04-25T06:41:28;9.20;99.90
25342;DHT22;13298;48.792;9.154;2023-04-25T06:43:54;9.40;99.90
25342;DHT22;13298;48.792;9.154;2023-04-25T06:46:19;9.50;99.90
25342;DHT22;13298;48.792;9.154;2023-04-25T06:48:45;9.60;99.90
25342;DHT22;13298;48.792;9.154;2023-04-25T06:51:11;9.60;99.90
25342;DHT22;13298;48.792;9.154;2023-04-25T06:53:38;9.60;99.90
25342;DHT22;13298;48.792;9.154;2023-04-25T06:56:05;9.70;99.90
25342;DHT22;13298;48.792;9.154;2023-04-25T06:58:31;9.60;99.90
25342;DHT22;13298;48.792;9.154;2023-04-25T07:00:57;9.60;99.90
25342;DHT22;13298;48.792;9.154;2023-04-25T07:03:22;9.50;99.90
25342;DHT22;13298;48.792;9.154;2023-04-25T07:05:49;9.50;99.90
25342;DHT22;13298;48.792;9.154;2023-04-25T07:08:15;9.30;99.90
25342;DHT22;13298;48.792;9.154;2023-04-25T07:10:41;9.30;99.90
25342;DHT22;13298;48.792;9.154;2023-04-25T07:13:06;9.20;99.90
25342;DHT22;13298;48.792;9.154;2023-04-25T07:15:32;9.10;99.90
25342;DHT22;13298;48.792;9.154;2023-04-25T07:17:58;9.00;99.90
25342;DHT22;13298;48.792;9.154;2023-04-25T07:20:24;9.00;99.90
25342;DHT22;13298;48.792;9.154;2023-04-25T07:22:50;9.00;99.90
25342;DHT22;13298;48.792;9.154;2023-04-25T07:25:16;9.00;99.90
25342;DHT22;13298;48.792;9.154;2023-04-25T07:27:42;9.00;99.90
25342;DHT22;13298;48.792;9.154;2023-04-25T07:30:08;9.00;99.90
25342;DHT22;13298;48.792;9.154;2023-04-25T07:32:34;8.90;99.90
25342;DHT22;13298;48.792;9.154;2023-04-25T07:35:00;8.80;99.90
25342;DHT22;13298;48.792;9.154;2023-04-25T07:37:27;8.80;99.90
25342;DHT22;13298;48.792;9.154;2023-04-25T07:39:52;8.60;99.90
25342;DHT22;13298;48.792;9.154;2023-04-25T07:42:18;8.60;99.90
25342;DHT22;13298;48.792;9.154;2023-04-25T07:44:44;8.50;99.90
25342;DHT22;13298;48.792;9.154;2023-04-25T07:47:10;8.50;99.90
25342;DHT22;13298;48.792;9.154;2023-04-25T07:49:36;8.40;99.90
25342;DHT22;13298;48.792;9.154;2023-04-25T07:52:03;8.30;99.90
25342;DHT22;13298;48.792;9.154;2023-04-25T07:54:30;8.20;99.90
25342;DHT22;13298;48.792;9.154;2023-04-25T07:56:56;8.20;99.90
25342;DHT22;13298;48.792;9.154;2023-04-25T07:59:22;8.10;99.90
25342;DHT22;13298;48.792;9.154;2023-04-25T08:01:47;8.10;99.90
25342;DHT22;13298;48.792;9.154;2023-04-25T08:04:13;8.10;99.90
25342;DHT22;13298;48.792;9.154;2023-04-25T08:06:39;8.10;99.90
25342;DHT22;13298;48.792;9.154;2023-04-25T08:09:06;8.10;99.90
25342;DHT22;13298;48.792;9.154;2023-04-25T08:11:31;8.10;99.90
25342;DHT22;13298;48.792;9.154;2023-04-25T08:13:57;8.20;99.90
25342;DHT22;13298;48.792;9.154;2023-04-25T08:16:23;8.30;99.90
25342;DHT22;13298;48.792;9.154;2023-04-25T08:18:50;8.40;99.90
25342;DHT22;13298;48.792;9.154;2023-04-25T08:21:15;8.50;99.90
25342;DHT22;13298;48.792;9.154;2023-04-25T08:23:41;8.60;99.90
25342;DHT22;13298;48.792;9.154;2023-04-25T08:26:07;8.60;99.90
25342;DHT22;13298;48.792;9.154;2023-04-25T08:28:33;8.60;99.90
25342;DHT22;13298;48.792;9.154;2023-04-25T08:30:59;8.60;99.90
25342;DHT22;13298;48.792;9.154;2023-04-25T08:33:25;8.60;99.90
25342;DHT22;13298;48.792;9.154;2023-04-25T08:35:51;8.50;99.90
25342;DHT22;13298;48.792;9.154;2023-04-25T08:38:17;8.40;99.90
25342;DHT22;13298;48.792;9.154;2023-04-25T08:40:43;8.40;99.90
25342;DHT22;13298;48.792;9.154;2023-04-25T08:43:13;8.40;99.90
25342;DHT22;13298;48.792;9.154;2023-04-25T08:45:41;8.60;99.90
25342;DHT22;13298;48.792;9.154;2023-04-25T08:48:12;8.70;99.90
25342;DHT22;13298;48.792;9.154;2023-04-25T08:50:58;8.80;99.90
25342;DHT22;13298;48.792;9.154;2023-04-25T08:53:31;8.90;99.90
25342;DHT22;13298;48.792;9.154;2023-04-25T08:55:59;8.80;99.90
25342;DHT22;13298;48.792;9.154;2023-04-25T08:58:27;8.70;99.90
25342;DHT22;13298;48.792;9.154;2023-04-25T09:00:53;8.70;99.90
25342;DHT22;13298;48.792;9.154;2023-04-25T09:03:19;8.60;99.90
25342;DHT22;13298;48.792;9.154;2023-04-25T09:05:45;8.60;99.90
25342;DHT22;13298;48.792;9.154;2023-04-25T09:08:11;8.60;99.90
25342;DHT22;13298;48.792;9.154;2023-04-25T09:10:37;8.60;99.90
25342;DHT22;13298;48.792;9.154;2023-04-25T09:13:08;8.60;99.90
25342;DHT22;13298;48.792;9.154;2023-04-25T09:15:52;8.60;99.90
25342;DHT22;13298;48.792;9.154;2023-04-25T09:20:53;8.60;99.90
25342;DHT22;13298;48.792;9.154;2023-04-25T09:23:23;8.60;99.90
25342;DHT22;13298;48.792;9.154;2023-04-25T09:25:51;8.50;99.90
25342;DHT22;13298;48.792;9.154;2023-04-25T09:28:26;8.50;99.90
25342;DHT22;13298;48.792;9.154;2023-04-25T09:30:56;8.40;99.90
25342;DHT22;13298;48.792;9.154;2023-04-25T09:33:32;8.50;99.90
25342;DHT22;13298;48.792;9.154;2023-04-25T09:36:10;8.50;99.90
25342;DHT22;13298;48.792;9.154;2023-04-25T09:38:44;8.60;99.90
25342;DHT22;13298;48.792;9.154;2023-04-25T09:41:11;8.60;99.90
25342;DHT22;13298;48.792;9.154;2023-04-25T09:43:38;8.60;99.90
25342;DHT22;13298;48.792;9.154;2023-04-25T09:46:08;8.70;99.90
25342;DHT22;13298;48.792;9.154;2023-04-25T09:48:35;8.70;99.90
25342;DHT22;13298;48.792;9.154;2023-04-25T09:51:14;8.70;99.90
25342;DHT22;13298;48.792;9.154;2023-04-25T09:53:42;8.70;99.90
25342;DHT22;13298;48.792;9.154;2023-04-25T09:56:12;8.70;99.90
25342;DHT22;13298;48.792;9.154;2023-04-25T09:58:40;8.60;99.90
25342;DHT22;13298;48.792;9.154;2023-04-25T10:01:07;8.60;99.90
25342;DHT22;13298;48.792;9.154;2023-04-25T10:03:38;8.50;99.90
25342;DHT22;13298;48.792;9.154;2023-04-25T10:06:16;8.40;99.90
25342;DHT22;13298;48.792;9.154;2023-04-25T10:08:45;8.30;99.90
25342;DHT22;13298;48.792;9.154;2023-04-25T10:11:14;8.20;99.90
25342;DHT22;13298;48.792;9.154;2023-04-25T10:13:41;8.10;99.90
25342;DHT22;13298;48.792;9.154;2023-04-25T10:16:08;8.10;99.90
25342;DHT22;13298;48.792;9.154;2023-04-25T10:18:52;8.10;99.90
25342;DHT22;13298;48.792;9.154;2023-04-25T10:21:19;8.10;99.90
25342;DHT22;13298;48.792;9.154;2023-04-25T10:23:47;8.10;99.90
25342;DHT22;13298;48.792;9.154;2023-04-25T10:26:14;8.10;99.90
25342;DHT22;13298;48.792;9.154;2023-04-25T10:29:00;8.10;99.90
25342;DHT22;13298;48.792;9.154;2023-04-25T10:31:29;8.00;99.90
25342;DHT22;13298;48.792;9.154;2023-04-25T10:33:56;8.00;99.90
25342;DHT22;13298;48.792;9.154;2023-04-25T10:36:23;8.00;99.90
25342;DHT22;13298;48.792;9.154;2023-04-25T10:38:50;8.00;99.90
25342;DHT22;13298;48.792;9.154;2023-04-25T10:41:21;8.00;99.90
25342;DHT22;13298;48.792;9.154;2023-04-25T10:43:49;7.90;99.90
25342;DHT22;13298;48.792;9.154;2023-04-25T10:46:21;7.70;99.90
25342;DHT22;13298;48.792;9.154;2023-04-25T10:48:55;7.60;99.90
25342;DHT22;13298;48.792;9.154;2023-04-25T10:51:27;7.60;99.90
25342;DHT22;13298;48.792;9.154;2023-04-25T10:54:01;7.50;99.90
25342;DHT22;13298;48.792;9.154;2023-04-25T10:59:17;7.50;99.90
25342;DHT22;13298;48.792;9.154;2023-04-25T11:01:49;7.50;99.90
25342;DHT22;13298;48.792;9.154;2023-04-25T11:04:20;7.50;99.90
25342;DHT22;13298;48.792;9.154;2023-04-25T11:07:13;7.50;99.90
25342;DHT22;13298;48.792;9.154;2023-04-25T11:09:52;7.60;99.90
25342;DHT22;13298;48.792;9.154;2023-04-25T11:12:18;7.80;99.90
25342;DHT22;13298;48.792;9.154;2023-04-25T11:14:43;7.90;99.90
25342;DHT22;13298;48.792;9.154;2023-04-25T11:17:09;8.00;99.90
25342;DHT22;13298;48.792;9.154;2023-04-25T11:19:36;8.20;99.90
25342;DHT22;13298;48.792;9.154;2023-04-25T11:22:03;8.30;99.90
25342;DHT22;13298;48.792;9.154;2023-04-25T11:24:30;8.20;99.90
25342;DHT22;13298;48.792;9.154;2023-04-25T11:26:58;8.30;99.90
25342;DHT22;13298;48.792;9.154;2023-04-25T11:29:26;8.30;99.90
25342;DHT22;13298;48.792;9.154;2023-04-25T11:34:24;8.40;99.90
25342;DHT22;13298;48.792;9.154;2023-04-25T11:36:51;8.50;99.90
25342;DHT22;13298;48.792;9.154;2023-04-25T11:39:19;8.50;99.90
25342;DHT22;13298;48.792;9.154;2023-04-25T11:41:46;8.60;99.90
25342;DHT22;13298;48.792;9.154;2023-04-25T11:44:15;8.50;99.90
25342;DHT22;13298;48.792;9.154;2023-04-25T11:46:42;8.60;99.90
25342;DHT22;13298;48.792;9.154;2023-04-25T11:49:08;8.50;99.90
25342;DHT22;13298;48.792;9.154;2023-04-25T11:51:41;8.50;99.90
25342;DHT22;13298;48.792;9.154;2023-04-25T11:54:08;8.40;99.90
25342;DHT22;13298;48.792;9.154;2023-04-25T11:56:34;8.40;99.90
25342;DHT22;13298;48.792;9.154;2023-04-25T11:59:02;8.40;99.90
25342;DHT22;13298;48.792;9.154;2023-04-25T12:01:31;8.50;99.90
25342;DHT22;13298;48.792;9.154;2023-04-25T12:03:58;8.50;99.90
25342;DHT22;13298;48.792;9.154;2023-04-25T12:06:37;8.70;99.90
25342;DHT22;13298;48.792;9.154;2023-04-25T12:09:11;8.80;99.90
25342;DHT22;13298;48.792;9.154;2023-04-25T12:11:46;9.00;99.90
25342;DHT22;13298;48.792;9.154;2023-04-25T12:14:21;8.90;99.90
25342;DHT22;13298;48.792;9.154;2023-04-25T12:16:49;8.90;99.90
25342;DHT22;13298;48.792;9.154;2023-04-25T12:19:17;8.70;99.90
25342;DHT22;13298;48.792;9.154;2023-04-25T12:21:44;8.70;99.90
25342;DHT22;13298;48.792;9.154;2023-04-25T12:24:25;8.70;99.90
25342;DHT22;13298;48.792;9.154;2023-04-25T12:27:01;8.70;99.90
25342;DHT22;13298;48.792;9.154;2023-04-25T12:29:29;8.60;99.90
25342;DHT22;13298;48.792;9.154;2023-04-25T12:31:56;8.70;99.90
25342;DHT22;13298;48.792;9.154;2023-04-25T12:34:23;8.70;99.90
25342;DHT22;13298;48.792;9.154;2023-04-25T12:36:50;8.80;99.90
25342;DHT22;13298;48.792;9.154;2023-04-25T12:39:17;9.00;99.90
25342;DHT22;13298;48.792;9.154;2023-04-25T12:41:51;9.30;99.90
25342;DHT22;13298;48.792;9.154;2023-04-25T12:44:20;9.60;99.90
25342;DHT22;13298;48.792;9.154;2023-04-25T12:46:47;10.10;99.90
25342;DHT22;13298;48.792;9.154;2023-04-25T12:49:12;10.50;99.90
25342;DHT22;13298;48.792;9.154;2023-04-25T12:51:39;10.70;99.90
25342;DHT22;13298;48.792;9.154;2023-04-25T12:54:05;11.00;99.90
25342;DHT22;13298;48.792;9.154;2023-04-25T12:56:32;11.30;99.90
25342;DHT22;13298;48.792;9.154;2023-04-25T12:58:58;11.60;99.90
25342;DHT22;13298;48.792;9.154;2023-04-25T13:01:25;11.70;99.90
25342;DHT22;13298;48.792;9.154;2023-04-25T13:03:52;11.80;99.90
25342;DHT22;13298;48.792;9.154;2023-04-25T13:06:19;11.80;99.90
25342;DHT22;13298;48.792;9.154;2023-04-25T13:08:46;11.70;99.90
25342;DHT22;13298;48.792;9.154;2023-04-25T13:11:12;11.40;99.90
25342;DHT22;13298;48.792;9.154;2023-04-25T13:13:38;11.40;99.90
25342;DHT22;13298;48.792;9.154;2023-04-25T13:16:05;11.40;99.90
25342;DHT22;13298;48.792;9.154;2023-04-25T13:18:31;11.50;99.90
25342;DHT22;13298;48.792;9.154;2023-04-25T13:20:57;11.60;99.90
25342;DHT22;13298;48.792;9.154;2023-04-25T13:23:26;11.80;99.90
25342;DHT22;13298;48.792;9.154;2023-04-25T13:25:53;11.80;99.90
25342;DHT22;13298;48.792;9.154;2023-04-25T13:28:19;11.80;99.90
25342;DHT22;13298;48.792;9.154;2023-04-25T13:30:45;11.80;99.90
25342;DHT22;13298;48.792;9.154;2023-04-25T13:33:12;12.00;99.90
25342;DHT22;13298;48.792;9.154;2023-04-25T13:35:38;12.20;99.90
25342;DHT22;13298;48.792;9.154;2023-04-25T13:38:04;12.20;99.90
25342;DHT22;13298;48.792;9.154;2023-04-25T13:40:30;11.70;99.90
25342;DHT22;13298;48.792;9.154;2023-04-25T13:42:57;11.30;99.90
25342;DHT22;13298;48.792;9.154;2023-04-25T13:45:23;11.10;99.90
25342;DHT22;13298;48.792;9.154;2023-04-25T13:47:49;10.80;99.90
25342;DHT22;13298;48.792;9.154;2023-04-25T13:50:15;10.70;99.90
25342;DHT22;13298;48.792;9.154;2023-04-25T13:52:41;10.80;99.90
25342;DHT22;13298;48.792;9.154;2023-04-25T13:55:08;11.00;99.90
25342;DHT22;13298;48.792;9.154;2023-04-25T13:57:35;11.20;99.90
25342;DHT22;13298;48.792;9.154;2023-04-25T14:00:01;11.50;99.90
25342;DHT22;13298;48.792;9.154;2023-04-25T14:02:32;11.70;99.90
25342;DHT22;13298;48.792;9.154;2023-04-25T14:04:58;11.70;99.90
25342;DHT22;13298;48.792;9.154;2023-04-25T14:07:23;11.60;99.90
25342;DHT22;13298;48.792;9.154;2023-04-25T14:09:50;11.50;99.90
25342;DHT22;13298;48.792;9.154;2023-04-25T14:12:16;11.50;99.90
25342;DHT22;13298;48.792;9.154;2023-04-25T14:14:41;11.70;99.90
25342;DHT22;13298;48.792;9.154;2023-04-25T14:17:08;11.90;99.90
25342;DHT22;13298;48.792;9.154;2023-04-25T14:19:34;12.30;99.90
25342;DHT22;13298;48.792;9.154;2023-04-25T14:22:00;12.40;99.90
25342;DHT22;13298;48.792;9.154;2023-04-25T14:24:25;12.30;99.90
25342;DHT22;13298;48.792;9.154;2023-04-25T14:26:51;12.30;99.90
25342;DHT22;13298;48.792;9.154;2023-04-25T14:29:17;12.30;99.90
25342;DHT22;13298;48.792;9.154;2023-04-25T14:31:43;12.30;99.90
25342;DHT22;13298;48.792;9.154;2023-04-25T14:34:08;12.40;99.90
25342;DHT22;13298;48.792;9.154;2023-04-25T14:36:35;12.50;99.90
25342;DHT22;13298;48.792;9.154;2023-04-25T14:39:01;12.70;99.90
25342;DHT22;13298;48.792;9.154;2023-04-25T14:41:27;12.70;99.90
25342;DHT22;13298;48.792;9.154;2023-04-25T14:43:53;12.60;99.90
25342;DHT22;13298;48.792;9.154;2023-04-25T14:46:20;12.60;99.90
25342;DHT22;13298;48.792;9.154;2023-04-25T14:48:46;12.50;99.90
25342;DHT22;13298;48.792;9.154;2023-04-25T14:51:12;12.30;99.90
25342;DHT22;13298;48.792;9.154;2023-04-25T14:53:39;12.30;99.90
25342;DHT22;13298;48.792;9.154;2023-04-25T14:56:05;12.30;99.90
25342;DHT22;13298;48.792;9.154;2023-04-25T14:58:31;12.40;99.90
25342;DHT22;13298;48.792;9.154;2023-04-25T15:00:57;12.50;99.90
25342;DHT22;13298;48.792;9.154;2023-04-25T15:03:22;12.40;99.90
25342;DHT22;13298;48.792;9.154;2023-04-25T15:05:48;12.30;99.90
25342;DHT22;13298;48.792;9.154;2023-04-25T15:08:14;12.20;99.90
25342;DHT22;13298;48.792;9.154;2023-04-25T15:10:40;12.00;99.90
25342;DHT22;13298;48.792;9.154;2023-04-25T15:13:05;11.90;99.90
25342;DHT22;13298;48.792;9.154;2023-04-25T15:15:31;11.80;99.90
25342;DHT22;13298;48.792;9.154;2023-04-25T15:17:57;11.60;99.90
25342;DHT22;13298;48.792;9.154;2023-04-25T15:20:23;11.50;99.90
25342;DHT22;13298;48.792;9.154;2023-04-25T15:22:48;11.50;99.90
25342;DHT22;13298;48.792;9.154;2023-04-25T15:25:15;11.70;99.90
25342;DHT22;13298;48.792;9.154;2023-04-25T15:27:43;11.60;99.90
25342;DHT22;13298;48.792;9.154;2023-04-25T15:30:14;11.50;99.90
25342;DHT22;13298;48.792;9.154;2023-04-25T15:32:41;11.60;99.90
25342;DHT22;13298;48.792;9.154;2023-04-25T15:35:08;11.90;99.90
25342;DHT22;13298;48.792;9.154;2023-04-25T15:37:35;12.20;99.90
25342;DHT22;13298;48.792;9.154;2023-04-25T15:40:10;12.40;99.90
25342;DHT22;13298;48.792;9.154;2023-04-25T15:42:38;12.50;99.90
25342;DHT22;13298;48.792;9.154;2023-04-25T15:45:06;12.60;99.90
25342;DHT22;13298;48.792;9.154;2023-04-25T15:47:37;12.60;99.90
25342;DHT22;13298;48.792;9.154;2023-04-25T15:50:07;12.40;99.90
25342;DHT22;13298;48.792;9.154;2023-04-25T15:52:34;12.30;99.90
25342;DHT22;13298;48.792;9.154;2023-04-25T15:55:00;12.20;99.90